createdAt,value
2018-04-22T00:00:03.582Z,66.80
2018-04-22T00:02:29.780Z,66.90
2018-04-22T00:04:56.091Z,67.00
2018-04-22T00:07:22.304Z,67.10
2018-04-22T00:09:48.554Z,67.20
2018-04-22T00:12:14.751Z,67.20
2018-04-22T00:14:40.988Z,67.20
2018-04-22T00:17:07.216Z,67.30
2018-04-22T00:19:33.448Z,67.70
2018-04-22T00:21:59.662Z,67.70
2018-04-22T00:24:25.867Z,67.60
2018-04-22T00:26:52.256Z,67.60
2018-04-22T00:29:18.840Z,67.50
2018-04-22T00:31:45.058Z,67.50
2018-04-22T00:34:11.364Z,67.20
2018-04-22T00:36:37.644Z,67.40
2018-04-22T00:39:03.950Z,67.50
2018-04-22T00:41:30.145Z,67.50
2018-04-22T00:43:56.653Z,67.80
2018-04-22T00:46:22.869Z,67.80
2018-04-22T00:48:49.075Z,67.90
2018-04-22T00:51:15.320Z,67.90
2018-04-22T00:53:53.803Z,68.10
2018-04-22T00:56:20.061Z,68.40
2018-04-22T00:58:46.267Z,68.10
2018-04-22T01:01:12.529Z,68.30
2018-04-22T01:03:38.794Z,68.10
2018-04-22T01:06:05.401Z,68.20
2018-04-22T01:08:31.648Z,68.20
2018-04-22T01:10:58.253Z,68.20
2018-04-22T01:13:24.466Z,68.20
2018-04-22T01:15:50.697Z,68.20
2018-04-22T01:18:16.955Z,68.30
2018-04-22T01:20:43.209Z,68.40
2018-04-22T01:23:09.788Z,68.40
2018-04-22T01:25:36.031Z,68.40
2018-04-22T01:28:02.255Z,68.30
2018-04-22T01:30:28.488Z,68.60
2018-04-22T01:32:54.711Z,68.80
2018-04-22T01:35:20.961Z,68.90
2018-04-22T01:37:47.253Z,69.20
2018-04-22T01:40:13.477Z,69.30
2018-04-22T01:42:39.677Z,69.30
2018-04-22T01:45:05.912Z,69.10
2018-04-22T01:47:32.210Z,69.30
2018-04-22T01:49:58.426Z,69.30
2018-04-22T01:52:24.693Z,69.20
2018-04-22T01:54:51.526Z,69.70
2018-04-22T01:57:17.760Z,69.60
2018-04-22T01:59:44.233Z,69.60
2018-04-22T02:02:10.491Z,69.70
2018-04-22T02:04:36.711Z,69.70
2018-04-22T02:07:04.292Z,70.00
2018-04-22T02:09:31.235Z,70.00
2018-04-22T02:11:57.885Z,70.20
2018-04-22T02:14:24.121Z,70.20
2018-04-22T02:16:50.352Z,70.00
2018-04-22T02:19:16.602Z,70.10
2018-04-22T02:21:42.856Z,70.20
2018-04-22T02:24:09.101Z,70.50
2018-04-22T02:26:35.388Z,70.80
2018-04-22T02:29:01.621Z,70.70
2018-04-22T02:31:28.659Z,70.80
2018-04-22T02:33:54.900Z,71.00
2018-04-22T02:36:21.157Z,70.90
2018-04-22T02:38:47.378Z,71.10
2018-04-22T02:41:13.641Z,71.40
2018-04-22T02:43:39.880Z,71.40
2018-04-22T02:46:06.101Z,71.60
2018-04-22T02:48:32.332Z,71.80
2018-04-22T02:50:58.552Z,71.70
2018-04-22T02:53:25.171Z,71.40
2018-04-22T02:55:51.393Z,71.40
2018-04-22T02:58:17.594Z,71.40
2018-04-22T03:00:43.844Z,71.60
2018-04-22T03:03:10.284Z,71.90
2018-04-22T03:05:36.559Z,71.90
2018-04-22T03:08:02.772Z,71.80
2018-04-22T03:10:28.988Z,71.80
2018-04-22T03:12:56.465Z,71.90
2018-04-22T03:15:22.676Z,71.90
2018-04-22T03:17:49.574Z,71.70
2018-04-22T03:20:15.833Z,71.80
2018-04-22T03:22:42.072Z,71.70
2018-04-22T03:25:08.330Z,71.90
2018-04-22T03:27:34.597Z,71.80
2018-04-22T03:30:00.826Z,71.50
2018-04-22T03:32:27.066Z,71.30
2018-04-22T03:34:53.359Z,71.30
2018-04-22T03:37:19.626Z,71.30
2018-04-22T03:39:45.835Z,71.10
2018-04-22T03:42:12.088Z,71.00
2018-04-22T03:44:38.337Z,71.20
2018-04-22T03:47:04.591Z,71.20
2018-04-22T03:49:37.814Z,71.10
2018-04-22T03:52:04.065Z,71.30
2018-04-22T03:54:37.261Z,71.40
2018-04-22T03:57:03.521Z,71.40
2018-04-22T03:59:29.744Z,71.60
2018-04-22T04:01:56.001Z,71.60
2018-04-22T04:04:22.225Z,71.90
2018-04-22T04:06:48.452Z,71.90
2018-04-22T04:09:14.689Z,71.60
2018-04-22T04:11:40.920Z,71.90
2018-04-22T04:14:07.152Z,71.90
2018-04-22T04:16:33.401Z,71.40
2018-04-22T04:19:11.912Z,70.80
2018-04-22T04:21:50.216Z,71.20
2018-04-22T04:24:37.338Z,71.50
2018-04-22T04:40:26.092Z,72.30
2018-04-22T04:42:52.319Z,72.80
2018-04-22T04:45:18.549Z,73.10
2018-04-22T04:47:45.577Z,73.50
2018-04-22T04:50:11.773Z,73.40
2018-04-22T04:52:38.058Z,73.40
2018-04-22T04:55:04.296Z,73.20
2018-04-22T04:57:30.913Z,73.10
2018-04-22T04:59:57.204Z,73.10
2018-04-22T05:02:23.417Z,73.20
2018-04-22T05:04:49.621Z,73.20
2018-04-22T05:07:16.249Z,73.50
2018-04-22T05:09:42.480Z,73.50
2018-04-22T05:12:09.076Z,73.30
2018-04-22T05:14:35.330Z,73.30
2018-04-22T05:17:01.534Z,73.40
2018-04-22T05:19:27.750Z,73.50
2018-04-22T05:21:55.004Z,73.50
2018-04-22T05:24:21.252Z,73.80
2018-04-22T05:26:47.428Z,73.80
2018-04-22T05:29:13.682Z,73.80
2018-04-22T05:31:39.910Z,73.70
2018-04-22T05:34:06.116Z,74.00
2018-04-22T05:36:32.450Z,74.10
2018-04-22T05:38:58.671Z,73.30
2018-04-22T05:41:24.894Z,73.10
2018-04-22T05:43:51.744Z,73.60
2018-04-22T05:46:17.988Z,73.60
2018-04-22T05:48:44.292Z,73.60
2018-04-22T05:51:10.487Z,73.90
2018-04-22T05:53:36.682Z,73.00
2018-04-22T05:56:02.897Z,72.50
2018-04-22T05:58:29.127Z,72.10
2018-04-22T06:00:55.348Z,72.10
2018-04-22T06:03:21.560Z,72.40
2018-04-22T06:05:48.194Z,72.50
2018-04-22T06:08:14.768Z,72.30
2018-04-22T06:10:41.022Z,72.30
2018-04-22T06:13:07.287Z,72.20
2018-04-22T06:15:33.939Z,71.90
2018-04-22T06:18:00.165Z,71.90
2018-04-22T06:20:26.464Z,72.30
2018-04-22T06:22:52.739Z,72.10
2018-04-22T06:25:19.358Z,72.50
2018-04-22T06:27:45.616Z,72.50
2018-04-22T06:30:11.838Z,73.00
2018-04-22T06:32:38.063Z,72.10
2018-04-22T06:35:04.315Z,71.60
2018-04-22T06:37:30.539Z,71.90
2018-04-22T06:39:56.756Z,71.30
2018-04-22T06:42:23.083Z,71.00
2018-04-22T06:44:49.342Z,69.80
2018-04-22T06:47:16.424Z,70.50
2018-04-22T06:49:42.707Z,70.10
2018-04-22T06:52:08.918Z,70.60
2018-04-22T06:54:35.179Z,69.00
2018-04-22T06:57:01.444Z,69.70
2018-04-22T06:59:27.654Z,69.50
2018-04-22T07:01:54.285Z,68.40
2018-04-22T07:04:20.500Z,68.30
2018-04-22T07:06:46.715Z,68.60
2018-04-22T07:09:12.973Z,70.00
2018-04-22T07:11:39.202Z,70.20
2018-04-22T07:14:05.422Z,69.50
2018-04-22T07:16:31.722Z,68.10
2018-04-22T07:18:58.997Z,67.50
2018-04-22T07:21:25.354Z,65.50
2018-04-22T07:23:51.955Z,66.10
2018-04-22T07:26:18.260Z,66.10
2018-04-22T07:28:44.513Z,65.60
2018-04-22T07:31:10.791Z,65.40
2018-04-22T07:33:37.040Z,66.40
2018-04-22T07:36:03.418Z,64.70
2018-04-22T07:38:29.721Z,64.80
2018-04-22T07:40:55.987Z,61.30
2018-04-22T07:43:22.244Z,62.00
2018-04-22T07:45:48.517Z,62.10
2018-04-22T07:48:14.757Z,62.30
2018-04-22T07:50:41.041Z,59.60
2018-04-22T07:53:07.278Z,60.10
2018-04-22T07:55:33.529Z,59.80
2018-04-22T07:57:59.746Z,59.20
2018-04-22T08:00:26.005Z,59.50
2018-04-22T08:02:52.296Z,58.60
2018-04-22T08:05:19.644Z,57.10
2018-04-22T08:07:45.887Z,57.40
2018-04-22T08:10:12.152Z,58.10
2018-04-22T08:12:38.372Z,58.70
2018-04-22T08:15:04.703Z,57.70
2018-04-22T08:17:30.935Z,58.40
2018-04-22T08:19:57.188Z,57.30
2018-04-22T08:22:23.828Z,57.40
2018-04-22T08:24:50.075Z,57.40
2018-04-22T08:27:16.324Z,57.40
2018-04-22T08:29:42.607Z,58.40
2018-04-22T08:32:08.883Z,57.40
2018-04-22T08:34:35.286Z,57.30
2018-04-22T08:37:02.651Z,56.50
2018-04-22T08:39:28.966Z,56.60
2018-04-22T08:41:55.221Z,56.90
2018-04-22T08:44:21.443Z,56.00
2018-04-22T08:46:47.722Z,57.00
2018-04-22T08:49:13.945Z,56.50
2018-04-22T08:51:40.187Z,56.20
2018-04-22T08:54:06.453Z,55.40
2018-04-22T08:56:32.936Z,55.30
2018-04-22T08:59:00.765Z,54.70
2018-04-22T09:01:27.937Z,54.00
2018-04-22T09:03:54.233Z,53.70
2018-04-22T09:06:20.495Z,54.70
2018-04-22T09:08:46.756Z,54.70
2018-04-22T09:11:13.043Z,53.50
2018-04-22T09:13:40.134Z,54.80
2018-04-22T09:16:06.431Z,53.10
2018-04-22T09:18:32.684Z,54.20
2018-04-22T09:20:59.100Z,54.10
2018-04-22T09:23:25.480Z,53.60
2018-04-22T09:25:52.054Z,54.50
2018-04-22T09:28:18.347Z,53.20
2018-04-22T09:30:44.601Z,53.30
2018-04-22T09:33:10.940Z,54.40
2018-04-22T09:35:37.144Z,51.60
2018-04-22T09:38:03.375Z,49.80
2018-04-22T09:40:29.692Z,49.30
2018-04-22T09:42:56.005Z,49.10
2018-04-22T09:45:22.227Z,49.70
2018-04-22T09:47:48.510Z,49.50
2018-04-22T09:50:14.763Z,48.60
2018-04-22T09:52:40.997Z,49.70
2018-04-22T09:55:07.257Z,48.10
2018-04-22T09:57:33.901Z,50.50
2018-04-22T10:00:00.528Z,48.00
2018-04-22T10:02:32.064Z,47.30
2018-04-22T10:05:04.307Z,47.30
2018-04-22T10:07:31.357Z,47.40
2018-04-22T10:09:57.642Z,46.60
2018-04-22T10:12:23.925Z,46.60
2018-04-22T10:14:50.144Z,45.70
2018-04-22T10:17:16.421Z,45.60
2018-04-22T10:19:43.048Z,45.10
2018-04-22T10:22:09.744Z,44.00
2018-04-22T10:24:36.949Z,44.00
2018-04-22T10:27:03.227Z,44.30
2018-04-22T10:29:29.588Z,44.20
2018-04-22T10:31:55.869Z,42.80
2018-04-22T10:34:22.191Z,43.10
2018-04-22T10:36:48.400Z,44.50
2018-04-22T10:39:14.662Z,44.20
2018-04-22T10:41:40.890Z,43.50
2018-04-22T10:44:07.129Z,42.70
2018-04-22T10:46:33.458Z,42.80
2018-04-22T10:48:59.694Z,42.00
2018-04-22T10:51:26.132Z,40.40
2018-04-22T10:53:52.463Z,39.80
2018-04-22T10:56:18.702Z,40.00
2018-04-22T10:58:45.008Z,38.50
2018-04-22T11:01:11.273Z,38.20
2018-04-22T11:03:37.494Z,37.30
2018-04-22T11:06:04.417Z,37.30
2018-04-22T11:08:30.679Z,35.20
2018-04-22T11:10:57.288Z,36.60
2018-04-22T11:13:23.535Z,36.60
2018-04-22T11:15:49.781Z,34.90
2018-04-22T11:18:16.486Z,33.70
2018-04-22T11:20:42.739Z,33.70
2018-04-22T11:23:09.026Z,34.30
2018-04-22T11:25:35.290Z,34.10
2018-04-22T11:28:01.527Z,34.10
2018-04-22T11:30:27.771Z,34.60
2018-04-22T11:32:53.992Z,34.10
2018-04-22T11:35:20.602Z,34.20
2018-04-22T11:37:46.866Z,34.20
2018-04-22T11:40:14.753Z,34.00
2018-04-22T11:42:40.983Z,33.00
2018-04-22T11:45:07.256Z,33.00
2018-04-22T11:47:33.507Z,33.20
2018-04-22T11:50:00.087Z,34.10
2018-04-22T11:52:26.330Z,34.10
2018-04-22T11:54:52.631Z,32.40
2018-04-22T11:57:18.828Z,33.30
2018-04-22T11:59:45.462Z,30.40
2018-04-22T12:02:12.100Z,29.50
2018-04-22T12:04:38.338Z,29.50
2018-04-22T12:07:04.569Z,30.40
2018-04-22T12:09:30.825Z,31.00
2018-04-22T12:11:57.105Z,30.50
2018-04-22T12:14:23.327Z,29.20
2018-04-22T12:16:49.590Z,29.40
2018-04-22T12:19:15.811Z,30.20
2018-04-22T12:21:42.455Z,27.80
2018-04-22T12:24:08.683Z,27.80
2018-04-22T12:26:34.986Z,28.50
2018-04-22T12:29:01.206Z,27.80
2018-04-22T12:31:27.444Z,29.10
2018-04-22T12:33:54.063Z,30.00
2018-04-22T12:36:20.864Z,29.90
2018-04-22T12:38:47.127Z,28.20
2018-04-22T12:41:13.355Z,33.10
2018-04-22T12:43:39.618Z,33.20
2018-04-22T12:46:05.838Z,30.30
2018-04-22T12:48:32.068Z,29.90
2018-04-22T12:50:58.339Z,31.10
2018-04-22T12:53:24.603Z,29.00
2018-04-22T12:55:50.827Z,28.90
2018-04-22T12:58:17.037Z,28.50
2018-04-22T13:00:43.257Z,27.50
2018-04-22T13:03:09.525Z,28.50
2018-04-22T13:05:35.819Z,27.50
2018-04-22T13:08:02.118Z,27.60
2018-04-22T13:10:28.347Z,28.60
2018-04-22T13:12:54.548Z,30.30
2018-04-22T13:15:20.777Z,28.10
2018-04-22T13:17:47.011Z,28.20
2018-04-22T13:20:13.219Z,27.90
2018-04-22T13:22:39.459Z,26.60
2018-04-22T13:25:05.675Z,27.10
2018-04-22T13:27:31.918Z,28.00
2018-04-22T13:29:58.210Z,27.70
2018-04-22T13:32:24.449Z,27.60
2018-04-22T13:34:50.713Z,31.00
2018-04-22T13:37:17.309Z,27.30
2018-04-22T13:39:43.564Z,27.30
2018-04-22T13:42:09.803Z,27.30
2018-04-22T13:44:36.459Z,26.80
2018-04-22T13:47:02.737Z,26.80
2018-04-22T13:49:28.999Z,27.00
2018-04-22T13:51:55.585Z,31.60
2018-04-22T13:54:21.882Z,31.60
2018-04-22T13:56:48.088Z,29.20
2018-04-22T13:59:14.711Z,27.30
2018-04-22T14:01:40.928Z,27.30
2018-04-22T14:04:07.190Z,28.60
2018-04-22T14:06:33.399Z,29.40
2018-04-22T14:08:59.654Z,31.10
2018-04-22T14:11:25.913Z,31.40
2018-04-22T14:13:52.188Z,32.00
2018-04-22T14:16:18.469Z,32.30
2018-04-22T14:18:44.694Z,32.50
2018-04-22T14:21:10.993Z,32.50
2018-04-22T14:23:37.194Z,34.70
2018-04-22T14:26:03.594Z,33.70
2018-04-22T14:28:29.859Z,34.70
2018-04-22T14:30:56.146Z,35.90
2018-04-22T14:33:22.440Z,35.90
2018-04-22T14:35:49.096Z,36.10
2018-04-22T14:38:15.336Z,36.10
2018-04-22T14:40:41.583Z,36.80
2018-04-22T14:43:07.815Z,36.30
2018-04-22T14:45:46.223Z,37.90
2018-04-22T14:48:12.469Z,37.80
2018-04-22T14:50:38.722Z,39.50
2018-04-22T14:53:04.952Z,38.90
2018-04-22T14:55:31.594Z,41.20
2018-04-22T14:57:58.167Z,38.30
2018-04-22T15:00:24.417Z,38.30
2018-04-22T15:02:50.652Z,37.30
2018-04-22T15:05:16.986Z,38.10
2018-04-22T15:07:43.161Z,38.30
2018-04-22T15:10:09.416Z,38.10
2018-04-22T15:12:35.650Z,37.80
2018-04-22T15:15:01.894Z,38.10
2018-04-22T15:17:28.149Z,36.90
2018-04-22T15:19:54.637Z,39.10
2018-04-22T15:22:20.853Z,33.80
2018-04-22T15:24:47.090Z,35.80
2018-04-22T15:27:13.322Z,36.10
2018-04-22T15:29:39.593Z,36.80
2018-04-22T15:32:05.836Z,38.00
2018-04-22T15:34:32.444Z,39.10
2018-04-22T15:36:58.713Z,39.10
2018-04-22T15:39:25.312Z,40.00
2018-04-22T15:41:51.572Z,40.00
2018-04-22T15:44:18.169Z,40.10
2018-04-22T15:46:44.437Z,40.10
2018-04-22T15:49:11.018Z,41.60
2018-04-22T15:51:37.319Z,41.70
2018-04-22T15:54:03.913Z,43.00
2018-04-22T15:56:30.173Z,43.00
2018-04-22T15:58:56.803Z,44.30
2018-04-22T16:01:23.458Z,43.90
2018-04-22T16:03:49.674Z,43.90
2018-04-22T16:06:16.307Z,41.70
2018-04-22T16:08:42.895Z,41.20
2018-04-22T16:11:09.132Z,41.20
2018-04-22T16:13:35.374Z,39.20
2018-04-22T16:16:01.602Z,41.70
2018-04-22T16:18:28.679Z,38.90
2018-04-22T16:20:55.539Z,37.80
2018-04-22T16:23:21.791Z,37.80
2018-04-22T16:25:48.126Z,37.70
2018-04-22T16:28:14.355Z,37.00
2018-04-22T16:30:40.676Z,36.50
2018-04-22T16:33:06.931Z,36.70
2018-04-22T16:35:33.161Z,36.70
2018-04-22T16:37:59.396Z,36.60
2018-04-22T16:40:25.632Z,36.40
2018-04-22T16:42:51.870Z,36.40
2018-04-22T16:45:18.480Z,36.10
2018-04-22T16:47:44.736Z,36.00
2018-04-22T16:50:11.003Z,37.90
2018-04-22T16:52:37.236Z,35.30
2018-04-22T16:55:03.485Z,35.50
2018-04-22T16:57:30.596Z,35.20
2018-04-22T16:59:56.840Z,35.00
2018-04-22T17:02:23.106Z,35.50
2018-04-22T17:04:49.307Z,35.70
2018-04-22T17:07:15.581Z,35.60
2018-04-22T17:09:41.972Z,36.50
2018-04-22T17:12:08.228Z,34.70
2018-04-22T17:14:34.522Z,34.90
2018-04-22T17:17:00.794Z,36.50
2018-04-22T17:19:27.041Z,35.20
2018-04-22T17:21:53.643Z,35.80
2018-04-22T17:24:19.902Z,35.80
2018-04-22T17:26:46.557Z,36.40
2018-04-22T17:29:13.163Z,36.60
2018-04-22T17:31:39.443Z,36.70
2018-04-22T17:34:05.677Z,36.50
2018-04-22T17:36:31.899Z,36.50
2018-04-22T17:38:58.172Z,38.10
2018-04-22T17:41:24.402Z,40.20
2018-04-22T17:43:50.631Z,41.30
2018-04-22T17:46:16.856Z,43.00
2018-04-22T17:48:43.134Z,40.70
2018-04-22T17:51:09.391Z,44.00
2018-04-22T17:53:35.721Z,43.20
2018-04-22T17:56:02.051Z,43.40
2018-04-22T17:58:28.294Z,59.30
2018-04-22T18:00:54.541Z,59.90
2018-04-22T18:03:20.867Z,59.20
2018-04-22T18:05:47.149Z,60.60
2018-04-22T18:08:13.419Z,58.80
2018-04-22T18:10:39.642Z,58.50
2018-04-22T18:13:06.286Z,57.20
2018-04-22T18:15:32.560Z,57.20
2018-04-22T18:17:58.812Z,56.50
2018-04-22T18:20:25.092Z,56.70
2018-04-22T18:22:51.339Z,56.00
2018-04-22T18:25:17.591Z,56.50
2018-04-22T18:27:43.895Z,56.40
2018-04-22T18:30:10.563Z,57.70
2018-04-22T18:32:36.853Z,57.70
2018-04-22T18:35:03.092Z,58.20
2018-04-22T18:37:29.345Z,57.70
2018-04-22T18:39:55.588Z,58.50
2018-04-22T18:42:21.809Z,59.10
2018-04-22T18:44:48.073Z,57.50
2018-04-22T18:47:14.321Z,58.70
2018-04-22T18:49:41.980Z,58.50
2018-04-22T18:52:08.593Z,57.90
2018-04-22T18:54:34.897Z,57.90
2018-04-22T18:57:01.142Z,58.30
2018-04-22T18:59:27.373Z,58.00
2018-04-22T19:01:53.637Z,57.60
2018-04-22T19:04:19.925Z,57.50
2018-04-22T19:06:46.251Z,57.40
2018-04-22T19:09:12.526Z,58.20
2018-04-22T19:11:39.142Z,58.40
2018-04-22T19:14:05.424Z,58.40
2018-04-22T19:16:31.697Z,58.30
2018-04-22T19:18:57.986Z,58.30
2018-04-22T19:21:24.224Z,58.80
2018-04-22T19:23:50.590Z,58.50
2018-04-22T19:26:17.282Z,59.50
2018-04-22T19:28:43.549Z,59.50
2018-04-22T19:31:09.778Z,59.80
2018-04-22T19:33:36.802Z,59.70
2018-04-22T19:36:03.050Z,60.00
2018-04-22T19:38:30.139Z,60.70
2018-04-22T19:40:56.441Z,60.60
2018-04-22T19:43:22.661Z,60.70
2018-04-22T19:45:48.896Z,60.80
2018-04-22T19:48:15.191Z,61.10
2018-04-22T19:50:41.438Z,61.20
2018-04-22T19:53:07.682Z,61.80
2018-04-22T19:55:33.927Z,61.90
2018-04-22T19:58:00.538Z,62.40
2018-04-22T20:00:26.791Z,62.40
2018-04-22T20:02:53.103Z,62.50
2018-04-22T20:05:19.417Z,62.80
2018-04-22T20:07:45.660Z,62.60
2018-04-22T20:10:11.911Z,62.60
2018-04-22T20:12:38.154Z,63.00
2018-04-22T20:15:05.756Z,62.90
2018-04-22T20:17:32.017Z,62.80
2018-04-22T20:19:58.244Z,62.80
2018-04-22T20:22:24.497Z,63.00
2018-04-22T20:24:50.775Z,63.50
2018-04-22T20:27:17.009Z,63.30
2018-04-22T20:29:43.254Z,63.50
2018-04-22T20:32:09.477Z,63.50
2018-04-22T20:34:35.777Z,63.30
2018-04-22T20:37:02.079Z,63.50
2018-04-22T20:39:28.343Z,63.50
2018-04-22T20:41:54.571Z,63.50
2018-04-22T20:44:20.869Z,63.70
2018-04-22T20:46:47.115Z,63.70
2018-04-22T20:49:13.340Z,63.60
2018-04-22T20:51:39.573Z,63.60
2018-04-22T20:54:05.809Z,63.50
2018-04-22T20:56:32.071Z,63.20
2018-04-22T20:58:58.278Z,64.10
2018-04-22T21:01:24.547Z,63.40
2018-04-22T21:03:51.211Z,63.50
2018-04-22T21:06:17.457Z,63.50
2018-04-22T21:08:43.698Z,63.10
2018-04-22T21:11:09.954Z,63.00
2018-04-22T21:13:36.193Z,63.30
2018-04-22T21:16:02.820Z,64.70
2018-04-22T21:18:29.068Z,64.70
2018-04-22T21:21:02.497Z,65.80
2018-04-22T21:23:28.813Z,65.90
2018-04-22T21:25:56.106Z,65.90
2018-04-22T21:28:22.448Z,66.70
2018-04-22T21:30:48.632Z,67.10
2018-04-22T21:33:14.848Z,67.00
2018-04-22T21:35:41.096Z,66.50
2018-04-22T21:38:07.317Z,66.60
2018-04-22T21:40:33.588Z,66.30
2018-04-22T21:42:59.825Z,66.40
2018-04-22T21:45:26.046Z,66.00
2018-04-22T21:47:52.320Z,66.00
2018-04-22T21:50:18.578Z,66.20
2018-04-22T21:52:44.832Z,66.30
2018-04-22T21:55:11.122Z,66.70
2018-04-22T21:57:44.149Z,66.50
2018-04-22T22:00:10.431Z,66.70
2018-04-22T22:02:36.654Z,66.10
2018-04-22T22:05:02.883Z,66.40
2018-04-22T22:07:29.146Z,67.10
2018-04-22T22:09:55.360Z,66.50
2018-04-22T22:12:21.608Z,65.50
2018-04-22T22:14:47.816Z,66.00
2018-04-22T22:17:14.027Z,66.10
2018-04-22T22:19:40.236Z,65.70
2018-04-22T22:22:06.484Z,65.00
2018-04-22T22:24:32.712Z,65.00
2018-04-22T22:26:58.917Z,64.80
2018-04-22T22:29:25.137Z,64.70
2018-04-22T22:31:51.386Z,65.60
2018-04-22T22:34:17.648Z,65.40
2018-04-22T22:36:43.885Z,65.90
2018-04-22T22:39:10.096Z,65.80
2018-04-22T22:41:36.328Z,65.90
2018-04-22T22:44:02.564Z,66.70
2018-04-22T22:46:28.858Z,67.40
2018-04-22T22:48:55.066Z,67.60
2018-04-22T22:51:21.679Z,68.00
2018-04-22T22:53:47.871Z,68.00
2018-04-22T22:56:14.117Z,68.20
2018-04-22T22:58:40.322Z,68.70
2018-04-22T23:01:06.636Z,68.60
2018-04-22T23:03:32.831Z,69.40
2018-04-22T23:05:59.040Z,69.60
2018-04-22T23:08:25.248Z,70.10
2018-04-22T23:10:51.520Z,70.40
2018-04-22T23:13:17.744Z,70.70
2018-04-22T23:15:43.965Z,70.80
2018-04-22T23:18:10.195Z,70.70
2018-04-22T23:20:36.423Z,69.80
2018-04-22T23:23:02.694Z,69.10
2018-04-22T23:25:28.916Z,69.30
2018-04-22T23:27:55.139Z,69.40
2018-04-22T23:30:21.331Z,69.60
2018-04-22T23:32:47.937Z,69.70
2018-04-22T23:35:14.140Z,69.70
2018-04-22T23:37:40.367Z,69.70
2018-04-22T23:40:06.604Z,70.90
2018-04-22T23:42:32.863Z,70.30
2018-04-22T23:44:59.175Z,70.70
2018-04-22T23:47:25.479Z,71.00
2018-04-22T23:49:51.726Z,70.80
2018-04-22T23:52:17.969Z,70.10
2018-04-22T23:54:44.183Z,70.70
2018-04-22T23:57:10.420Z,69.70
2018-04-22T23:59:36.657Z,69.90
